sensor_id;sensor_type;location;lat;lon;timestamp;pressure;altitude;pressure_sealevel;temperature;humidity
41947;BME280;27638;42.184;24.848;2023-04-25T00:01:11;99134.00;;;15.63;100.00
41947;BME280;27638;42.184;24.848;2023-04-25T00:03:38;99124.94;;;15.44;100.00
41947;BME280;27638;42.184;24.848;2023-04-25T00:06:04;99109.56;;;15.26;100.00
41947;BME280;27638;42.184;24.848;2023-04-25T00:08:30;99113.47;;;15.17;100.00
41947;BME280;27638;42.184;24.848;2023-04-25T00:10:56;99108.16;;;14.84;100.00
41947;BME280;27638;42.184;24.848;2023-04-25T00:13:22;99098.31;;;14.72;100.00
41947;BME280;27638;42.184;24.848;2023-04-25T00:15:47;99098.13;;;14.60;100.00
41947;BME280;27638;42.184;24.848;2023-04-25T00:18:14;99085.78;;;14.52;100.00
41947;BME280;27638;42.184;24.848;2023-04-25T00:20:39;99083.88;;;14.39;100.00
41947;BME280;27638;42.184;24.848;2023-04-25T00:23:05;99086.53;;;14.26;100.00
41947;BME280;27638;42.184;24.848;2023-04-25T00:25:31;99074.63;;;14.16;100.00
41947;BME280;27638;42.184;24.848;2023-04-25T00:27:56;99079.94;;;14.16;100.00
41947;BME280;27638;42.184;24.848;2023-04-25T00:30:22;99080.34;;;14.13;100.00
41947;BME280;27638;42.184;24.848;2023-04-25T00:32:47;99075.00;;;14.06;100.00
41947;BME280;27638;42.184;24.848;2023-04-25T00:35:14;99072.34;;;14.06;100.00
41947;BME280;27638;42.184;24.848;2023-04-25T00:37:39;99071.13;;;14.15;100.00
41947;BME280;27638;42.184;24.848;2023-04-25T00:40:06;99071.75;;;14.11;100.00
41947;BME280;27638;42.184;24.848;2023-04-25T00:42:31;99062.34;;;14.15;100.00
41947;BME280;27638;42.184;24.848;2023-04-25T00:44:58;99060.28;;;14.17;100.00
41947;BME280;27638;42.184;24.848;2023-04-25T00:47:25;99056.81;;;14.16;100.00
41947;BME280;27638;42.184;24.848;2023-04-25T00:49:50;99046.38;;;14.28;100.00
41947;BME280;27638;42.184;24.848;2023-04-25T00:52:16;99060.72;;;14.33;100.00
41947;BME280;27638;42.184;24.848;2023-04-25T00:54:42;99061.56;;;14.41;100.00
41947;BME280;27638;42.184;24.848;2023-04-25T00:57:07;99067.75;;;14.54;100.00
41947;BME280;27638;42.184;24.848;2023-04-25T00:59:33;99067.78;;;14.61;100.00
41947;BME280;27638;42.184;24.848;2023-04-25T01:01:59;99064.72;;;14.77;100.00
41947;BME280;27638;42.184;24.848;2023-04-25T01:04:27;99061.22;;;14.77;100.00
41947;BME280;27638;42.184;24.848;2023-04-25T01:06:53;99063.88;;;14.70;100.00
41947;BME280;27638;42.184;24.848;2023-04-25T01:09:19;99073.72;;;14.69;100.00
41947;BME280;27638;42.184;24.848;2023-04-25T01:11:45;99076.41;;;14.76;100.00
41947;BME280;27638;42.184;24.848;2023-04-25T01:14:11;99085.00;;;14.78;100.00
41947;BME280;27638;42.184;24.848;2023-04-25T01:16:36;99080.91;;;14.82;100.00
41947;BME280;27638;42.184;24.848;2023-04-25T01:19:07;99085.00;;;14.85;100.00
41947;BME280;27638;42.184;24.848;2023-04-25T01:21:34;99075.16;;;14.92;100.00
41947;BME280;27638;42.184;24.848;2023-04-25T01:24:00;99073.09;;;15.00;100.00
41947;BME280;27638;42.184;24.848;2023-04-25T01:26:26;99058.94;;;15.00;100.00
41947;BME280;27638;42.184;24.848;2023-04-25T01:28:52;99057.72;;;14.96;100.00
41947;BME280;27638;42.184;24.848;2023-04-25T01:31:18;99062.84;;;14.97;100.00
41947;BME280;27638;42.184;24.848;2023-04-25T01:33:44;99068.59;;;14.94;100.00
41947;BME280;27638;42.184;24.848;2023-04-25T01:36:10;99068.41;;;14.83;100.00
41947;BME280;27638;42.184;24.848;2023-04-25T01:38:36;99065.13;;;14.74;100.00
41947;BME280;27638;42.184;24.848;2023-04-25T01:41:02;99061.44;;;14.75;100.00
41947;BME280;27638;42.184;24.848;2023-04-25T01:43:28;99051.59;;;14.82;100.00
41947;BME280;27638;42.184;24.848;2023-04-25T01:45:53;99063.69;;;14.91;100.00
41947;BME280;27638;42.184;24.848;2023-04-25T01:48:19;99059.16;;;14.92;100.00
41947;BME280;27638;42.184;24.848;2023-04-25T01:50:46;99059.38;;;14.84;100.00
41947;BME280;27638;42.184;24.848;2023-04-25T01:53:12;99065.31;;;14.86;100.00
41947;BME280;27638;42.184;24.848;2023-04-25T01:55:38;99059.16;;;14.79;100.00
41947;BME280;27638;42.184;24.848;2023-04-25T01:58:04;99066.56;;;14.77;100.00
41947;BME280;27638;42.184;24.848;2023-04-25T02:00:34;99064.91;;;14.76;100.00
41947;BME280;27638;42.184;24.848;2023-04-25T02:03:00;99057.94;;;14.81;100.00
41947;BME280;27638;42.184;24.848;2023-04-25T02:05:25;99052.41;;;14.83;100.00
41947;BME280;27638;42.184;24.848;2023-04-25T02:07:51;99053.84;;;14.92;100.00
41947;BME280;27638;42.184;24.848;2023-04-25T02:10:16;99054.66;;;14.99;100.00
41947;BME280;27638;42.184;24.848;2023-04-25T02:12:42;99060.38;;;15.02;100.00
41947;BME280;27638;42.184;24.848;2023-04-25T02:15:07;99050.75;;;15.01;100.00
41947;BME280;27638;42.184;24.848;2023-04-25T02:17:33;99055.66;;;15.05;100.00
41947;BME280;27638;42.184;24.848;2023-04-25T02:19:58;99044.16;;;15.11;100.00
41947;BME280;27638;42.184;24.848;2023-04-25T02:22:24;99039.66;;;15.11;100.00
41947;BME280;27638;42.184;24.848;2023-04-25T02:24:49;99047.22;;;15.14;100.00
41947;BME280;27638;42.184;24.848;2023-04-25T02:27:15;99044.56;;;15.14;100.00
41947;BME280;27638;42.184;24.848;2023-04-25T02:29:40;99041.50;;;15.11;100.00
41947;BME280;27638;42.184;24.848;2023-04-25T02:32:06;99037.81;;;15.12;100.00
41947;BME280;27638;42.184;24.848;2023-04-25T02:34:31;99044.16;;;15.17;100.00
41947;BME280;27638;42.184;24.848;2023-04-25T02:36:57;99046.81;;;15.17;100.00
41947;BME280;27638;42.184;24.848;2023-04-25T02:39:22;99047.00;;;15.22;100.00
41947;BME280;27638;42.184;24.848;2023-04-25T02:41:50;99044.31;;;15.29;100.00
41947;BME280;27638;42.184;24.848;2023-04-25T02:44:15;99039.59;;;15.31;100.00
41947;BME280;27638;42.184;24.848;2023-04-25T02:46:41;99042.88;;;15.33;100.00
41947;BME280;27638;42.184;24.848;2023-04-25T02:49:06;99044.13;;;15.30;100.00
41947;BME280;27638;42.184;24.848;2023-04-25T02:51:32;99045.16;;;15.29;100.00
41947;BME280;27638;42.184;24.848;2023-04-25T02:53:58;99042.69;;;15.28;100.00
41947;BME280;27638;42.184;24.848;2023-04-25T02:56:24;99036.13;;;15.30;100.00
41947;BME280;27638;42.184;24.848;2023-04-25T02:58:51;99038.56;;;15.32;100.00
41947;BME280;27638;42.184;24.848;2023-04-25T03:01:16;99046.22;;;15.15;100.00
41947;BME280;27638;42.184;24.848;2023-04-25T03:03:42;99057.53;;;14.91;100.00
41947;BME280;27638;42.184;24.848;2023-04-25T03:06:07;99050.97;;;14.93;100.00
41947;BME280;27638;42.184;24.848;2023-04-25T03:08:32;99030.66;;;14.53;100.00
41947;BME280;27638;42.184;24.848;2023-04-25T03:10:59;99055.28;;;14.75;100.00
41947;BME280;27638;42.184;24.848;2023-04-25T03:13:25;99060.81;;;14.66;100.00
41947;BME280;27638;42.184;24.848;2023-04-25T03:15:50;99055.50;;;14.66;100.00
41947;BME280;27638;42.184;24.848;2023-04-25T03:18:16;99055.06;;;14.63;100.00
41947;BME280;27638;42.184;24.848;2023-04-25T03:20:41;99058.34;;;14.58;100.00
41947;BME280;27638;42.184;24.848;2023-04-25T03:23:08;99056.72;;;14.64;100.00
41947;BME280;27638;42.184;24.848;2023-04-25T03:25:33;99063.06;;;14.63;100.00
41947;BME280;27638;42.184;24.848;2023-04-25T03:27:58;99056.50;;;14.65;100.00
41947;BME280;27638;42.184;24.848;2023-04-25T03:30:24;99055.06;;;14.63;100.00
41947;BME280;27638;42.184;24.848;2023-04-25T03:32:49;99044.81;;;14.60;100.00
41947;BME280;27638;42.184;24.848;2023-04-25T03:35:15;99042.38;;;14.58;100.00
41947;BME280;27638;42.184;24.848;2023-04-25T03:37:40;99052.22;;;14.58;100.00
41947;BME280;27638;42.184;24.848;2023-04-25T03:40:06;99051.38;;;14.57;100.00
41947;BME280;27638;42.184;24.848;2023-04-25T03:42:32;99044.63;;;14.61;100.00
41947;BME280;27638;42.184;24.848;2023-04-25T03:44:57;99047.09;;;14.63;100.00
41947;BME280;27638;42.184;24.848;2023-04-25T03:47:22;99039.09;;;14.63;100.00
41947;BME280;27638;42.184;24.848;2023-04-25T03:49:48;99040.94;;;14.69;100.00
41947;BME280;27638;42.184;24.848;2023-04-25T03:52:14;99033.34;;;14.73;100.00
41947;BME280;27638;42.184;24.848;2023-04-25T03:54:40;99033.53;;;14.78;100.00
41947;BME280;27638;42.184;24.848;2023-04-25T03:57:05;99027.19;;;14.79;100.00
41947;BME280;27638;42.184;24.848;2023-04-25T03:59:31;99025.56;;;14.78;100.00
41947;BME280;27638;42.184;24.848;2023-04-25T04:01:56;99035.00;;;14.74;100.00
41947;BME280;27638;42.184;24.848;2023-04-25T04:04:22;99034.38;;;14.85;100.00
41947;BME280;27638;42.184;24.848;2023-04-25T04:06:47;99038.25;;;14.89;100.00
41947;BME280;27638;42.184;24.848;2023-04-25T04:09:13;99028.41;;;14.89;100.00
41947;BME280;27638;42.184;24.848;2023-04-25T04:11:39;99026.56;;;14.90;100.00
41947;BME280;27638;42.184;24.848;2023-04-25T04:14:06;99029.84;;;14.98;100.00
41947;BME280;27638;42.184;24.848;2023-04-25T04:16:31;99035.81;;;14.81;100.00
41947;BME280;27638;42.184;24.848;2023-04-25T04:18:57;99029.44;;;14.88;100.00
41947;BME280;27638;42.184;24.848;2023-04-25T04:21:22;99029.00;;;14.98;100.00
41947;BME280;27638;42.184;24.848;2023-04-25T04:23:48;99030.66;;;14.92;100.00
41947;BME280;27638;42.184;24.848;2023-04-25T04:26:14;99025.53;;;14.97;100.00
41947;BME280;27638;42.184;24.848;2023-04-25T04:28:42;99023.66;;;15.11;100.00
41947;BME280;27638;42.184;24.848;2023-04-25T04:31:07;99029.38;;;15.21;100.00
41947;BME280;27638;42.184;24.848;2023-04-25T04:33:34;99034.09;;;15.19;100.00
41947;BME280;27638;42.184;24.848;2023-04-25T04:36:00;99042.91;;;15.20;100.00
41947;BME280;27638;42.184;24.848;2023-04-25T04:38:26;99044.13;;;15.24;100.00
41947;BME280;27638;42.184;24.848;2023-04-25T04:40:51;99045.34;;;15.28;100.00
41947;BME280;27638;42.184;24.848;2023-04-25T04:43:17;99049.25;;;15.25;100.00
41947;BME280;27638;42.184;24.848;2023-04-25T04:45:43;99052.13;;;15.30;100.00
41947;BME280;27638;42.184;24.848;2023-04-25T04:48:09;99053.13;;;15.43;100.00
41947;BME280;27638;42.184;24.848;2023-04-25T04:50:37;99043.88;;;15.45;100.00
41947;BME280;27638;42.184;24.848;2023-04-25T04:53:03;99047.13;;;15.54;100.00
41947;BME280;27638;42.184;24.848;2023-04-25T04:55:29;99045.31;;;15.61;100.00
41947;BME280;27638;42.184;24.848;2023-04-25T04:57:54;99049.59;;;15.69;100.00
41947;BME280;27638;42.184;24.848;2023-04-25T05:00:20;99042.38;;;15.76;100.00
41947;BME280;27638;42.184;24.848;2023-04-25T05:02:47;99033.09;;;15.85;100.00
41947;BME280;27638;42.184;24.848;2023-04-25T05:05:12;99037.56;;;15.91;100.00
41947;BME280;27638;42.184;24.848;2023-04-25T05:07:37;99043.09;;;15.96;100.00
41947;BME280;27638;42.184;24.848;2023-04-25T05:10:03;99039.56;;;16.02;100.00
41947;BME280;27638;42.184;24.848;2023-04-25T05:12:29;99048.50;;;16.21;100.00
41947;BME280;27638;42.184;24.848;2023-04-25T05:14:55;99048.66;;;16.26;100.00
41947;BME280;27638;42.184;24.848;2023-04-25T05:17:20;99046.00;;;16.26;100.00
41947;BME280;27638;42.184;24.848;2023-04-25T05:19:46;99042.47;;;16.32;100.00
41947;BME280;27638;42.184;24.848;2023-04-25T05:22:11;99046.75;;;16.33;100.00
41947;BME280;27638;42.184;24.848;2023-04-25T05:24:37;99052.53;;;16.30;100.00
41947;BME280;27638;42.184;24.848;2023-04-25T05:27:02;99045.38;;;16.24;100.00
41947;BME280;27638;42.184;24.848;2023-04-25T05:29:28;99047.09;;;16.12;100.00
41947;BME280;27638;42.184;24.848;2023-04-25T05:31:53;99043.97;;;16.21;100.00
41947;BME280;27638;42.184;24.848;2023-04-25T05:34:19;99037.00;;;16.20;100.00
41947;BME280;27638;42.184;24.848;2023-04-25T05:36:44;99050.69;;;15.99;100.00
41947;BME280;27638;42.184;24.848;2023-04-25T05:39:13;99046.50;;;16.10;100.00
41947;BME280;27638;42.184;24.848;2023-04-25T05:41:39;99040.13;;;16.11;100.00
41947;BME280;27638;42.184;24.848;2023-04-25T05:44:05;99049.78;;;16.12;100.00
41947;BME280;27638;42.184;24.848;2023-04-25T05:46:30;99045.09;;;16.07;100.00
41947;BME280;27638;42.184;24.848;2023-04-25T05:48:56;99037.63;;;16.16;100.00
41947;BME280;27638;42.184;24.848;2023-04-25T05:51:21;99037.41;;;15.86;100.00
41947;BME280;27638;42.184;24.848;2023-04-25T05:53:47;99038.78;;;15.95;100.00
41947;BME280;27638;42.184;24.848;2023-04-25T05:56:12;99043.09;;;15.96;100.00
41947;BME280;27638;42.184;24.848;2023-04-25T05:58:38;99045.56;;;15.98;100.00
41947;BME280;27638;42.184;24.848;2023-04-25T06:01:03;99046.53;;;16.03;100.00
41947;BME280;27638;42.184;24.848;2023-04-25T06:03:29;99044.88;;;16.09;100.00
41947;BME280;27638;42.184;24.848;2023-04-25T06:05:55;99048.53;;;16.14;100.00
41947;BME280;27638;42.184;24.848;2023-04-25T06:08:20;99041.03;;;16.29;100.00
41947;BME280;27638;42.184;24.848;2023-04-25T06:10:46;99044.47;;;16.37;100.00
41947;BME280;27638;42.184;24.848;2023-04-25T06:13:11;99034.66;;;16.31;100.00
41947;BME280;27638;42.184;24.848;2023-04-25T06:15:37;99036.25;;;16.38;100.00
41947;BME280;27638;42.184;24.848;2023-04-25T06:18:02;99032.06;;;16.49;100.00
41947;BME280;27638;42.184;24.848;2023-04-25T06:20:28;99023.94;;;16.69;100.00
41947;BME280;27638;42.184;24.848;2023-04-25T06:22:53;99037.50;;;16.92;98.25
41947;BME280;27638;42.184;24.848;2023-04-25T06:25:19;99037.00;;;17.02;98.75
41947;BME280;27638;42.184;24.848;2023-04-25T06:27:45;99028.84;;;17.15;98.28
41947;BME280;27638;42.184;24.848;2023-04-25T06:30:11;99032.88;;;17.24;96.83
41947;BME280;27638;42.184;24.848;2023-04-25T06:32:37;99037.03;;;17.20;96.47
41947;BME280;27638;42.184;24.848;2023-04-25T06:35:03;99035.53;;;17.24;97.21
41947;BME280;27638;42.184;24.848;2023-04-25T06:37:29;99028.84;;;17.33;96.73
41947;BME280;27638;42.184;24.848;2023-04-25T06:39:54;99034.50;;;17.62;97.10
41947;BME280;27638;42.184;24.848;2023-04-25T06:42:20;99035.78;;;17.77;93.38
41947;BME280;27638;42.184;24.848;2023-04-25T06:44:45;99030.84;;;17.93;91.16
41947;BME280;27638;42.184;24.848;2023-04-25T06:47:10;99023.63;;;18.23;91.38
41947;BME280;27638;42.184;24.848;2023-04-25T06:49:36;99014.22;;;18.32;95.19
41947;BME280;27638;42.184;24.848;2023-04-25T06:52:02;99015.56;;;18.11;92.40
41947;BME280;27638;42.184;24.848;2023-04-25T06:54:28;99015.13;;;18.26;90.01
41947;BME280;27638;42.184;24.848;2023-04-25T06:56:55;99009.56;;;18.51;87.63
41947;BME280;27638;42.184;24.848;2023-04-25T06:59:21;99013.50;;;19.02;84.80
41947;BME280;27638;42.184;24.848;2023-04-25T07:01:46;99007.59;;;19.52;83.19
41947;BME280;27638;42.184;24.848;2023-04-25T07:04:12;99032.03;;;19.90;84.65
41947;BME280;27638;42.184;24.848;2023-04-25T07:06:37;99025.50;;;20.15;81.34
41947;BME280;27638;42.184;24.848;2023-04-25T07:09:09;99030.88;;;20.60;82.71
41947;BME280;27638;42.184;24.848;2023-04-25T07:11:35;99034.81;;;20.86;79.22
41947;BME280;27638;42.184;24.848;2023-04-25T07:14:01;99026.91;;;20.34;78.01
41947;BME280;27638;42.184;24.848;2023-04-25T07:16:27;99031.13;;;20.42;79.15
41947;BME280;27638;42.184;24.848;2023-04-25T07:18:52;99027.63;;;20.75;80.42
41947;BME280;27638;42.184;24.848;2023-04-25T07:21:18;99020.34;;;20.75;78.77
41947;BME280;27638;42.184;24.848;2023-04-25T07:23:43;99019.91;;;20.33;79.10
41947;BME280;27638;42.184;24.848;2023-04-25T07:26:08;99018.06;;;20.05;81.32
41947;BME280;27638;42.184;24.848;2023-04-25T07:28:34;99009.25;;;19.93;80.73
41947;BME280;27638;42.184;24.848;2023-04-25T07:30:59;99019.00;;;19.82;81.48
41947;BME280;27638;42.184;24.848;2023-04-25T07:33:25;99010.34;;;20.08;82.70
41947;BME280;27638;42.184;24.848;2023-04-25T07:35:50;99017.38;;;20.26;78.87
41947;BME280;27638;42.184;24.848;2023-04-25T07:38:17;99003.34;;;20.86;79.39
41947;BME280;27638;42.184;24.848;2023-04-25T07:40:42;99007.91;;;20.52;75.30
41947;BME280;27638;42.184;24.848;2023-04-25T07:43:08;99005.53;;;20.39;77.87
41947;BME280;27638;42.184;24.848;2023-04-25T07:45:33;98998.50;;;20.71;77.47
41947;BME280;27638;42.184;24.848;2023-04-25T07:47:59;98995.00;;;20.71;79.06
41947;BME280;27638;42.184;24.848;2023-04-25T07:50:24;98996.22;;;20.80;76.36
41947;BME280;27638;42.184;24.848;2023-04-25T07:52:50;98981.25;;;20.51;79.54
41947;BME280;27638;42.184;24.848;2023-04-25T07:55:15;98992.25;;;20.66;77.04
41947;BME280;27638;42.184;24.848;2023-04-25T07:57:41;98987.13;;;20.48;77.54
41947;BME280;27638;42.184;24.848;2023-04-25T08:00:07;98990.38;;;20.83;74.95
41947;BME280;27638;42.184;24.848;2023-04-25T08:02:35;98987.91;;;20.65;74.46
41947;BME280;27638;42.184;24.848;2023-04-25T08:05:00;98989.34;;;19.65;79.36
41947;BME280;27638;42.184;24.848;2023-04-25T08:07:25;98989.47;;;19.70;80.12
41947;BME280;27638;42.184;24.848;2023-04-25T08:09:51;98989.47;;;19.99;80.11
41947;BME280;27638;42.184;24.848;2023-04-25T08:12:17;98986.88;;;19.75;78.31
41947;BME280;27638;42.184;24.848;2023-04-25T08:14:43;98991.19;;;20.05;77.64
41947;BME280;27638;42.184;24.848;2023-04-25T08:17:09;98990.22;;;20.39;82.62
41947;BME280;27638;42.184;24.848;2023-04-25T08:19:35;98989.56;;;20.66;77.75
41947;BME280;27638;42.184;24.848;2023-04-25T08:22:00;98994.53;;;20.91;75.36
41947;BME280;27638;42.184;24.848;2023-04-25T08:24:26;98995.31;;;21.08;74.06
41947;BME280;27638;42.184;24.848;2023-04-25T08:26:51;98994.78;;;21.28;73.20
41947;BME280;27638;42.184;24.848;2023-04-25T08:29:17;99001.69;;;21.41;75.56
41947;BME280;27638;42.184;24.848;2023-04-25T08:31:42;98999.84;;;21.68;73.26
41947;BME280;27638;42.184;24.848;2023-04-25T08:34:08;98986.38;;;21.90;70.07
41947;BME280;27638;42.184;24.848;2023-04-25T08:36:34;98993.16;;;21.71;72.35
41947;BME280;27638;42.184;24.848;2023-04-25T08:39:00;98995.59;;;21.72;72.89
41947;BME280;27638;42.184;24.848;2023-04-25T08:41:26;98982.81;;;21.62;70.42
41947;BME280;27638;42.184;24.848;2023-04-25T08:43:53;98986.06;;;21.21;71.56
41947;BME280;27638;42.184;24.848;2023-04-25T08:46:20;98985.19;;;21.15;71.77
41947;BME280;27638;42.184;24.848;2023-04-25T08:48:46;98985.72;;;21.34;75.58
41947;BME280;27638;42.184;24.848;2023-04-25T08:51:23;98989.47;;;21.33;73.76
41947;BME280;27638;42.184;24.848;2023-04-25T08:53:53;98992.25;;;21.21;74.75
41947;BME280;27638;42.184;24.848;2023-04-25T08:56:19;98984.03;;;21.28;73.03
41947;BME280;27638;42.184;24.848;2023-04-25T08:58:49;98968.25;;;21.37;73.59
41947;BME280;27638;42.184;24.848;2023-04-25T09:01:15;98981.97;;;21.35;74.50
41947;BME280;27638;42.184;24.848;2023-04-25T09:03:41;98992.50;;;21.20;75.41
41947;BME280;27638;42.184;24.848;2023-04-25T09:06:09;98988.16;;;20.97;74.47
41947;BME280;27638;42.184;24.848;2023-04-25T09:08:36;98999.84;;;20.86;73.98
41947;BME280;27638;42.184;24.848;2023-04-25T09:11:02;98994.38;;;20.64;74.22
41947;BME280;27638;42.184;24.848;2023-04-25T09:13:28;98990.63;;;20.48;75.67
41947;BME280;27638;42.184;24.848;2023-04-25T09:15:56;98995.09;;;20.43;76.40
41947;BME280;27638;42.184;24.848;2023-04-25T09:18:33;98991.06;;;20.28;77.17
41947;BME280;27638;42.184;24.848;2023-04-25T09:21:10;98992.38;;;20.26;77.81
41947;BME280;27638;42.184;24.848;2023-04-25T09:23:41;98978.91;;;20.09;78.07
41947;BME280;27638;42.184;24.848;2023-04-25T09:26:07;98978.91;;;20.09;80.54
41947;BME280;27638;42.184;24.848;2023-04-25T09:28:34;98979.72;;;20.09;79.92
41947;BME280;27638;42.184;24.848;2023-04-25T09:31:01;98980.63;;;20.15;81.68
41947;BME280;27638;42.184;24.848;2023-04-25T09:33:29;98978.03;;;20.20;81.28
41947;BME280;27638;42.184;24.848;2023-04-25T09:36:05;98953.50;;;20.17;80.19
41947;BME280;27638;42.184;24.848;2023-04-25T09:38:31;98947.66;;;20.20;79.64
41947;BME280;27638;42.184;24.848;2023-04-25T09:40:58;98965.56;;;20.14;79.44
41947;BME280;27638;42.184;24.848;2023-04-25T09:43:24;98959.53;;;20.07;79.49
41947;BME280;27638;42.184;24.848;2023-04-25T09:45:51;98960.44;;;20.13;79.38
41947;BME280;27638;42.184;24.848;2023-04-25T09:48:19;98967.03;;;20.22;80.50
41947;BME280;27638;42.184;24.848;2023-04-25T09:51:06;98952.44;;;20.34;80.91
41947;BME280;27638;42.184;24.848;2023-04-25T09:53:40;98951.16;;;20.37;77.07
41947;BME280;27638;42.184;24.848;2023-04-25T09:56:10;98950.28;;;20.48;78.65
41947;BME280;27638;42.184;24.848;2023-04-25T09:58:37;98943.59;;;20.51;75.69
41947;BME280;27638;42.184;24.848;2023-04-25T10:01:04;98936.91;;;20.53;75.07
41947;BME280;27638;42.184;24.848;2023-04-25T10:03:32;98932.59;;;20.52;74.80
41947;BME280;27638;42.184;24.848;2023-04-25T10:06:07;98932.06;;;20.72;75.55
41947;BME280;27638;42.184;24.848;2023-04-25T10:08:35;98930.19;;;20.72;74.60
41947;BME280;27638;42.184;24.848;2023-04-25T10:11:06;98924.00;;;20.72;73.10
41947;BME280;27638;42.184;24.848;2023-04-25T10:13:34;98927.44;;;20.84;72.61
41947;BME280;27638;42.184;24.848;2023-04-25T10:16:02;98914.63;;;20.91;71.48
41947;BME280;27638;42.184;24.848;2023-04-25T10:18:28;98909.78;;;20.93;68.59
41947;BME280;27638;42.184;24.848;2023-04-25T10:20:56;98901.22;;;20.96;68.80
41947;BME280;27638;42.184;24.848;2023-04-25T10:23:23;98902.47;;;21.11;69.94
41947;BME280;27638;42.184;24.848;2023-04-25T10:25:50;98901.72;;;21.15;69.66
41947;BME280;27638;42.184;24.848;2023-04-25T10:28:16;98891.59;;;21.22;67.01
41947;BME280;27638;42.184;24.848;2023-04-25T10:31:01;98879.38;;;21.15;64.68
41947;BME280;27638;42.184;24.848;2023-04-25T10:33:38;98873.94;;;20.88;69.58
41947;BME280;27638;42.184;24.848;2023-04-25T10:36:14;98874.31;;;20.96;69.06
41947;BME280;27638;42.184;24.848;2023-04-25T10:38:42;98872.44;;;20.58;64.04
41947;BME280;27638;42.184;24.848;2023-04-25T10:41:09;98857.22;;;20.47;65.15
41947;BME280;27638;42.184;24.848;2023-04-25T10:43:45;98860.66;;;20.26;66.06
41947;BME280;27638;42.184;24.848;2023-04-25T10:46:28;98846.22;;;20.32;67.76
41947;BME280;27638;42.184;24.848;2023-04-25T10:48:58;98856.97;;;20.32;71.38
41947;BME280;27638;42.184;24.848;2023-04-25T10:51:25;98853.81;;;20.18;68.40
41947;BME280;27638;42.184;24.848;2023-04-25T10:56:21;98846.25;;;20.15;69.42
41947;BME280;27638;42.184;24.848;2023-04-25T10:58:47;98833.78;;;20.09;73.37
41947;BME280;27638;42.184;24.848;2023-04-25T11:01:20;98837.28;;;20.09;71.07
41947;BME280;27638;42.184;24.848;2023-04-25T11:03:46;98840.28;;;20.13;68.51
41947;BME280;27638;42.184;24.848;2023-04-25T11:06:45;98829.06;;;20.16;70.84
41947;BME280;27638;42.184;24.848;2023-04-25T11:09:12;98829.38;;;20.20;70.11
41947;BME280;27638;42.184;24.848;2023-04-25T11:11:41;98819.00;;;20.28;71.10
41947;BME280;27638;42.184;24.848;2023-04-25T11:14:06;98819.34;;;20.32;68.11
41947;BME280;27638;42.184;24.848;2023-04-25T11:16:32;98819.75;;;20.24;76.53
41947;BME280;27638;42.184;24.848;2023-04-25T11:18:58;98814.84;;;20.37;72.58
41947;BME280;27638;42.184;24.848;2023-04-25T11:21:25;98811.75;;;20.46;79.15
41947;BME280;27638;42.184;24.848;2023-04-25T11:23:56;98814.00;;;20.54;78.35
41947;BME280;27638;42.184;24.848;2023-04-25T11:26:22;98801.25;;;20.66;73.73
41947;BME280;27638;42.184;24.848;2023-04-25T11:28:49;98808.78;;;20.86;72.48
41947;BME280;27638;42.184;24.848;2023-04-25T11:31:14;98796.69;;;20.45;73.91
41947;BME280;27638;42.184;24.848;2023-04-25T11:33:40;98796.13;;;20.26;76.00
41947;BME280;27638;42.184;24.848;2023-04-25T11:36:06;98784.06;;;20.45;79.53
41947;BME280;27638;42.184;24.848;2023-04-25T11:38:32;98779.44;;;20.62;79.89
41947;BME280;27638;42.184;24.848;2023-04-25T11:40:57;98774.16;;;20.72;80.35
41947;BME280;27638;42.184;24.848;2023-04-25T11:43:23;98768.66;;;20.62;81.01
41947;BME280;27638;42.184;24.848;2023-04-25T11:45:49;98770.00;;;20.60;77.45
41947;BME280;27638;42.184;24.848;2023-04-25T11:48:16;98761.09;;;20.59;77.45
41947;BME280;27638;42.184;24.848;2023-04-25T11:50:41;98760.97;;;20.49;77.19
41947;BME280;27638;42.184;24.848;2023-04-25T11:53:07;98760.78;;;20.56;77.92
41947;BME280;27638;42.184;24.848;2023-04-25T11:55:33;98762.09;;;20.53;77.22
41947;BME280;27638;42.184;24.848;2023-04-25T11:58:00;98765.81;;;20.30;75.16
41947;BME280;27638;42.184;24.848;2023-04-25T12:00:26;98757.72;;;20.08;78.33
41947;BME280;27638;42.184;24.848;2023-04-25T12:02:53;98760.72;;;20.12;75.57
41947;BME280;27638;42.184;24.848;2023-04-25T12:05:21;98751.63;;;19.96;75.58
41947;BME280;27638;42.184;24.848;2023-04-25T12:07:48;98740.66;;;19.81;74.98
41947;BME280;27638;42.184;24.848;2023-04-25T12:10:16;98743.75;;;19.73;75.07
41947;BME280;27638;42.184;24.848;2023-04-25T12:12:42;98731.38;;;19.89;73.29
41947;BME280;27638;42.184;24.848;2023-04-25T12:15:13;98725.28;;;19.93;74.49
41947;BME280;27638;42.184;24.848;2023-04-25T12:17:42;98720.03;;;20.03;77.93
41947;BME280;27638;42.184;24.848;2023-04-25T12:20:21;98725.38;;;19.82;74.95
41947;BME280;27638;42.184;24.848;2023-04-25T12:22:49;98732.09;;;20.01;75.83
41947;BME280;27638;42.184;24.848;2023-04-25T12:25:40;98729.84;;;20.15;72.25
41947;BME280;27638;42.184;24.848;2023-04-25T12:28:20;98723.75;;;20.19;74.85
41947;BME280;27638;42.184;24.848;2023-04-25T12:31:12;98727.72;;;20.17;72.50
41947;BME280;27638;42.184;24.848;2023-04-25T12:33:39;98727.56;;;20.23;72.81
41947;BME280;27638;42.184;24.848;2023-04-25T12:36:06;98720.13;;;20.30;69.75
41947;BME280;27638;42.184;24.848;2023-04-25T12:38:40;98722.78;;;20.47;72.14
41947;BME280;27638;42.184;24.848;2023-04-25T12:41:06;98720.69;;;20.54;70.13
41947;BME280;27638;42.184;24.848;2023-04-25T12:43:32;98713.81;;;20.63;69.56
41947;BME280;27638;42.184;24.848;2023-04-25T12:45:58;98708.78;;;20.72;70.52